Terminal Aerodrome Forecast
Issued by NWS Denver/Boulder, CO

Home | Current Version | Previous Version | Text Only | Print | Product List | Glossary On
Versions: 1 2 3 4 5 6 7 8 9 10 11 12 13 14 15 16 17 18 19 20 21 22 23 24 25 26 27 28 29 30 31 32 33 34 35 36 37 38 39 40 41 42 43 44 45 46 47 48 49 50
000
FTUS45 KBOU 270149 AAB
TAFDEN
TAF AMD
KDEN 270149Z 2702/2806 31007KT P6SM FEW120 BKN170
     FM270300 08011KT P6SM FEW100 BKN170
     FM270400 13010KT P6SM FEW100 SCT180
     FM270500 20010KT P6SM FEW100 BKN180
     FM271500 30008KT P6SM FEW200
     FM271800 03012KT P6SM FEW200
     FM272200 07011KT P6SM FEW080 SCT150=

USA.gov is the U.S. government's official web portal to all federal, state and local government web resources and services.